createdAt,value
2022-11-16T00:01:41.781Z,153062.31
2022-11-16T00:04:11.929Z,153026.13
2022-11-16T00:06:40.747Z,153018.38
2022-11-16T00:09:23.445Z,153041.63
2022-11-16T00:11:54.771Z,153031.28
2022-11-16T00:14:23.828Z,153010.59
2022-11-16T00:16:52.153Z,153000.28
2022-11-16T00:19:20.148Z,153019.63
2022-11-16T00:21:48.009Z,153015.78
2022-11-16T00:24:16.979Z,153008.00
2022-11-16T00:26:44.992Z,153011.91
2022-11-16T00:29:16.108Z,153006.72
2022-11-16T00:31:44.750Z,152988.63
2022-11-16T00:34:12.838Z,153005.41
2022-11-16T00:36:40.606Z,152998.94
2022-11-16T00:39:08.485Z,152997.69
2022-11-16T00:41:36.146Z,152995.09
2022-11-16T00:44:03.886Z,153005.41
2022-11-16T00:46:33.168Z,152996.38
2022-11-16T00:49:01.033Z,152980.88
2022-11-16T00:51:28.884Z,152979.59
2022-11-16T00:53:56.623Z,152978.28
2022-11-16T00:56:24.806Z,152936.91
2022-11-16T00:58:52.653Z,152917.50
2022-11-16T01:01:20.513Z,152958.88
2022-11-16T01:03:49.877Z,152965.38
2022-11-16T01:06:18.207Z,152973.09
2022-11-16T01:08:46.379Z,152974.41
2022-11-16T01:11:33.352Z,152945.97
2022-11-16T01:14:03.152Z,152986.03
2022-11-16T01:16:31.345Z,152984.72
2022-11-16T01:19:00.527Z,152930.47
2022-11-16T01:21:28.456Z,152970.50
2022-11-16T01:23:57.297Z,152979.59
2022-11-16T01:26:25.461Z,152970.50
2022-11-16T01:28:53.270Z,152965.38
2022-11-16T01:31:21.327Z,152975.69
2022-11-16T01:33:49.091Z,152926.56
2022-11-16T01:36:18.240Z,152940.78
2022-11-16T01:38:47.860Z,152931.72
2022-11-16T01:41:17.841Z,152938.19
2022-11-16T01:43:57.454Z,152929.16
2022-11-16T01:46:26.686Z,152945.97
2022-11-16T01:48:58.856Z,152925.28
2022-11-16T01:51:28.526Z,152914.91
2022-11-16T01:53:57.189Z,152916.25
2022-11-16T01:56:26.685Z,152852.91
2022-11-16T01:58:54.610Z,152896.84
2022-11-16T02:01:22.469Z,152918.84
2022-11-16T02:03:50.351Z,152926.56
2022-11-16T02:06:57.851Z,152925.28
2022-11-16T02:09:57.335Z,152920.09
2022-11-16T02:13:00.594Z,152902.03
2022-11-16T02:15:33.551Z,152914.91
2022-11-16T02:18:10.914Z,152920.09
2022-11-16T02:20:54.193Z,152914.91
2022-11-16T02:24:00.507Z,152912.34
2022-11-16T02:26:44.849Z,152921.38
2022-11-16T02:29:22.912Z,152908.47
2022-11-16T02:31:55.465Z,152907.19
2022-11-16T02:34:25.074Z,152916.25
2022-11-16T02:36:55.386Z,152916.25
2022-11-16T02:39:28.267Z,152900.69
2022-11-16T02:41:58.762Z,152891.66
2022-11-16T02:44:32.660Z,152891.66
2022-11-16T02:47:05.084Z,152882.63
2022-11-16T02:49:36.026Z,152883.94
2022-11-16T02:52:04.172Z,152820.59
2022-11-16T02:54:32.200Z,152828.31
2022-11-16T02:57:29.845Z,152872.31
2022-11-16T03:00:00.226Z,152865.81
2022-11-16T03:02:33.836Z,152863.22
2022-11-16T03:05:08.407Z,152880.03
2022-11-16T03:07:41.855Z,152889.06
2022-11-16T03:10:11.448Z,152859.34
2022-11-16T03:12:40.433Z,152894.25
2022-11-16T03:15:13.398Z,152868.41
2022-11-16T03:17:44.665Z,152908.47
2022-11-16T03:20:17.016Z,152899.44
2022-11-16T03:22:46.339Z,152895.56
2022-11-16T03:25:16.871Z,152872.31
2022-11-16T03:27:50.910Z,152896.84
2022-11-16T03:30:24.020Z,152881.34
2022-11-16T03:32:58.465Z,152887.78
2022-11-16T03:35:28.840Z,152887.78
2022-11-16T03:37:59.521Z,152889.06
2022-11-16T03:40:31.652Z,152898.09
2022-11-16T03:43:00.545Z,152900.69
2022-11-16T03:45:30.357Z,152894.25
2022-11-16T03:47:58.463Z,152865.81
2022-11-16T03:50:26.594Z,152860.66
2022-11-16T03:52:54.222Z,152892.97
2022-11-16T03:55:22.091Z,152902.03
2022-11-16T03:57:49.801Z,152896.84
2022-11-16T04:00:17.590Z,152889.06
2022-11-16T04:02:46.735Z,152878.75
2022-11-16T04:05:31.882Z,152873.56
2022-11-16T04:08:17.107Z,152864.53
2022-11-16T04:11:03.103Z,152852.91
2022-11-16T04:13:50.787Z,152865.81
2022-11-16T04:16:35.998Z,152870.97
2022-11-16T04:19:22.979Z,152839.94
2022-11-16T04:22:12.094Z,152878.75
2022-11-16T04:24:42.703Z,152870.97
2022-11-16T04:27:31.918Z,152874.84
2022-11-16T04:30:01.624Z,152845.13
2022-11-16T04:32:47.081Z,152852.91
2022-11-16T04:35:33.826Z,152855.50
2022-11-16T04:38:02.106Z,152865.81
2022-11-16T04:40:30.226Z,152852.91
2022-11-16T04:43:00.001Z,152850.31
2022-11-16T04:45:46.619Z,152850.31
2022-11-16T04:48:15.769Z,152843.88
2022-11-16T04:50:45.238Z,152829.63
2022-11-16T04:53:13.570Z,152851.59
2022-11-16T04:55:41.329Z,152836.09
2022-11-16T04:58:09.123Z,152819.28
2022-11-16T05:00:36.887Z,152812.84
2022-11-16T05:03:05.130Z,152799.88
2022-11-16T05:05:32.773Z,152795.97
2022-11-16T05:08:01.884Z,152802.44
2022-11-16T05:10:29.732Z,152815.41
2022-11-16T05:12:58.841Z,152811.56
2022-11-16T05:15:26.655Z,152824.47
2022-11-16T05:17:55.705Z,152816.69
2022-11-16T05:20:40.730Z,152805.00
2022-11-16T05:23:30.633Z,152798.56
2022-11-16T05:25:58.406Z,152793.38
2022-11-16T05:28:26.126Z,152784.34
2022-11-16T05:30:53.906Z,152785.66
2022-11-16T05:33:21.574Z,152795.97
2022-11-16T05:35:50.750Z,152798.56
2022-11-16T05:38:20.195Z,152786.94
2022-11-16T05:40:47.967Z,152783.06
2022-11-16T05:43:15.781Z,152759.81
2022-11-16T05:45:44.083Z,152801.16
2022-11-16T05:48:12.856Z,152776.56
2022-11-16T05:50:43.014Z,152772.72
2022-11-16T05:53:11.126Z,152762.41
2022-11-16T05:55:40.263Z,152744.28
2022-11-16T05:58:08.034Z,152744.28
2022-11-16T06:00:35.872Z,152737.84
2022-11-16T06:03:03.699Z,152750.78
2022-11-16T06:05:35.091Z,152736.56
2022-11-16T06:08:05.801Z,152744.28
2022-11-16T06:10:33.553Z,152749.47
2022-11-16T06:13:02.661Z,152740.44
2022-11-16T06:15:30.575Z,152728.78
2022-11-16T06:17:58.435Z,152731.38
2022-11-16T06:20:26.176Z,152739.16
2022-11-16T06:22:53.935Z,152701.69
2022-11-16T06:25:21.793Z,152709.41
2022-11-16T06:27:49.578Z,152724.94
2022-11-16T06:30:19.418Z,152713.31
2022-11-16T06:32:47.184Z,152715.91
2022-11-16T06:35:14.882Z,152700.38
2022-11-16T06:37:42.727Z,152733.97
2022-11-16T06:40:12.043Z,152726.22
2022-11-16T06:42:39.817Z,152721.03
2022-11-16T06:45:08.128Z,152709.41
2022-11-16T06:47:37.335Z,152730.06
2022-11-16T06:50:05.606Z,152740.44
2022-11-16T06:52:33.470Z,152748.19
2022-11-16T06:55:01.296Z,152727.53
2022-11-16T06:57:29.010Z,152717.16
2022-11-16T06:59:56.804Z,152723.63
2022-11-16T07:02:24.543Z,152674.53
2022-11-16T07:04:54.789Z,152730.06
2022-11-16T07:07:24.171Z,152726.22
2022-11-16T07:09:52.025Z,152715.91
2022-11-16T07:12:19.775Z,152706.81
2022-11-16T07:14:47.431Z,152733.97
2022-11-16T07:17:15.178Z,152728.78
2022-11-16T07:19:42.969Z,152735.25
2022-11-16T07:22:12.019Z,152735.25
2022-11-16T07:24:39.731Z,152719.75
2022-11-16T07:27:08.385Z,152735.25
2022-11-16T07:29:36.096Z,152722.34
2022-11-16T07:32:03.764Z,152739.16
2022-11-16T07:34:31.626Z,152722.34
2022-11-16T07:36:59.521Z,152741.69
2022-11-16T07:39:28.593Z,152759.81
2022-11-16T07:41:56.249Z,152771.44
2022-11-16T07:44:24.329Z,152762.41
2022-11-16T07:46:52.054Z,152775.31
2022-11-16T07:49:20.440Z,152790.78
2022-11-16T07:51:48.139Z,152764.94
2022-11-16T07:54:16.542Z,152767.53
2022-11-16T07:56:46.053Z,152753.31
2022-11-16T07:59:13.857Z,152695.19
2022-11-16T08:01:41.609Z,152671.94
2022-11-16T08:04:09.349Z,152699.09
2022-11-16T08:06:37.087Z,152679.72
2022-11-16T08:09:05.642Z,152693.91
2022-11-16T08:11:33.350Z,152635.78
2022-11-16T08:14:02.439Z,152617.72
2022-11-16T08:16:30.177Z,152629.34
2022-11-16T08:18:58.800Z,152609.97
2022-11-16T08:21:26.550Z,152594.47
2022-11-16T08:23:58.354Z,152602.19
2022-11-16T08:26:26.303Z,152594.47
2022-11-16T08:28:56.455Z,152595.75
2022-11-16T08:31:27.484Z,152594.47
2022-11-16T08:33:55.552Z,152597.03
2022-11-16T08:36:23.435Z,152590.56
2022-11-16T08:38:53.016Z,152617.72
2022-11-16T08:41:21.789Z,152620.25
2022-11-16T08:43:50.748Z,152628.03
2022-11-16T08:46:18.696Z,152642.25
2022-11-16T08:48:47.910Z,152653.88
2022-11-16T08:51:19.565Z,152695.19
2022-11-16T08:53:49.082Z,152635.78
2022-11-16T08:56:18.383Z,152722.34
2022-11-16T08:58:47.096Z,152740.44
2022-11-16T09:01:17.446Z,152763.69
2022-11-16T09:03:45.561Z,152788.25
2022-11-16T09:06:15.523Z,152788.25
2022-11-16T09:08:45.058Z,152801.16
2022-11-16T09:11:15.613Z,152819.28
2022-11-16T09:13:43.647Z,152829.63
2022-11-16T09:16:11.710Z,152858.09
2022-11-16T09:18:39.370Z,152855.50
2022-11-16T09:21:07.237Z,152881.34
2022-11-16T09:23:36.604Z,152894.25
2022-11-16T09:26:05.687Z,152904.59
2022-11-16T09:28:34.257Z,152881.34
2022-11-16T09:31:04.198Z,152846.44
2022-11-16T09:33:33.295Z,152900.69
2022-11-16T09:36:06.885Z,152878.75
2022-11-16T09:39:03.259Z,152895.56
2022-11-16T09:41:40.468Z,152927.88
2022-11-16T09:44:21.370Z,152935.59
2022-11-16T09:46:54.794Z,152907.19
2022-11-16T09:49:26.226Z,152911.06
2022-11-16T09:51:58.630Z,152878.75
2022-11-16T09:54:31.515Z,152878.75
2022-11-16T09:57:07.977Z,152886.47
2022-11-16T09:59:42.541Z,152918.84
2022-11-16T10:02:20.505Z,152943.38
2022-11-16T10:04:58.250Z,152986.03
2022-11-16T10:07:32.544Z,152930.47
2022-11-16T10:10:01.731Z,152912.34
2022-11-16T10:12:37.582Z,152940.78
2022-11-16T10:15:23.447Z,152935.59
2022-11-16T10:18:07.436Z,152902.03
2022-11-16T10:20:50.026Z,152898.09
2022-11-16T10:23:29.864Z,152907.19
2022-11-16T10:26:15.699Z,152935.59
2022-11-16T10:29:05.053Z,152930.47
2022-11-16T10:31:51.382Z,152948.56
2022-11-16T10:34:23.831Z,152917.50
2022-11-16T10:36:51.633Z,152962.78
2022-11-16T10:39:20.837Z,153017.09
2022-11-16T10:41:51.417Z,153102.41
2022-11-16T10:44:28.233Z,153105.00
2022-11-16T10:47:02.363Z,153129.56
2022-11-16T10:49:39.901Z,153169.66
2022-11-16T10:52:07.645Z,153177.44
2022-11-16T10:54:37.830Z,153160.63
2022-11-16T10:57:14.028Z,153165.81
2022-11-16T10:59:44.122Z,153101.16
2022-11-16T11:02:36.700Z,153077.81
2022-11-16T11:05:09.017Z,153077.81
2022-11-16T11:07:40.184Z,153042.91
2022-11-16T11:10:28.899Z,153085.59
2022-11-16T11:13:05.914Z,153059.72
2022-11-16T11:15:33.849Z,153095.97
2022-11-16T11:18:20.071Z,153172.25
2022-11-16T11:20:51.045Z,153211.09
2022-11-16T11:23:21.435Z,153261.59
2022-11-16T11:25:54.794Z,153239.56
2022-11-16T11:28:27.767Z,153194.25
2022-11-16T11:30:59.573Z,153182.63
2022-11-16T11:33:31.093Z,153183.91
2022-11-16T11:36:04.103Z,153158.03
2022-11-16T11:38:33.397Z,153238.28
2022-11-16T11:41:05.188Z,153290.06
2022-11-16T11:43:35.151Z,153297.78
2022-11-16T11:46:11.604Z,153326.25
2022-11-16T11:48:48.253Z,153369.00
2022-11-16T11:51:22.170Z,153308.16
2022-11-16T11:53:56.629Z,153321.06
2022-11-16T11:56:25.125Z,153352.16
2022-11-16T11:58:55.797Z,153345.69
2022-11-16T12:01:56.326Z,153313.34
2022-11-16T12:05:02.731Z,153378.03
2022-11-16T12:07:44.365Z,153251.22
2022-11-16T12:10:22.493Z,153271.91
2022-11-16T12:13:02.493Z,153282.28
2022-11-16T12:15:41.906Z,153198.13
2022-11-16T12:18:25.718Z,153236.97
2022-11-16T12:21:04.157Z,153317.22
2022-11-16T12:24:04.153Z,153308.16
2022-11-16T12:26:46.038Z,153292.66
2022-11-16T12:29:25.456Z,153337.91
2022-11-16T12:32:28.788Z,153352.16
2022-11-16T12:35:11.866Z,153370.25
2022-11-16T12:37:48.018Z,153345.69
2022-11-16T12:40:36.192Z,153353.47
2022-11-16T12:43:12.318Z,153414.31
2022-11-16T12:45:52.503Z,153477.69
2022-11-16T12:48:55.767Z,153415.59
2022-11-16T12:51:49.657Z,153376.78
2022-11-16T12:54:36.338Z,153484.22
2022-11-16T12:57:13.127Z,153484.22
2022-11-16T12:59:58.495Z,153510.09
2022-11-16T13:02:38.032Z,153523.03
2022-11-16T13:05:14.373Z,153473.84
2022-11-16T13:07:46.914Z,153502.31
2022-11-16T13:10:18.561Z,153547.59
2022-11-16T13:12:52.667Z,153609.84
2022-11-16T13:15:29.955Z,153599.47
2022-11-16T13:18:01.315Z,153661.66
2022-11-16T13:20:36.718Z,153640.94
2022-11-16T13:23:10.869Z,153539.88
2022-11-16T13:25:49.047Z,153580.06
2022-11-16T13:28:24.371Z,153637.03
2022-11-16T13:31:02.887Z,153604.66
2022-11-16T13:33:43.050Z,153633.16
2022-11-16T13:36:43.781Z,153596.88
2022-11-16T13:39:20.349Z,153660.34
2022-11-16T13:41:50.816Z,153678.50
2022-11-16T13:44:30.777Z,153608.53
2022-11-16T13:47:04.478Z,153611.13
2022-11-16T13:49:36.102Z,153607.25
2022-11-16T13:52:22.609Z,153626.69
2022-11-16T13:54:55.426Z,153485.47
2022-11-16T13:57:26.164Z,153515.25
2022-11-16T14:00:09.150Z,153528.22
2022-11-16T14:02:38.859Z,153525.63
2022-11-16T14:05:15.836Z,153494.53
2022-11-16T14:07:46.427Z,153508.78
2022-11-16T14:10:54.331Z,153521.75
2022-11-16T14:13:39.505Z,153510.09
2022-11-16T14:16:45.884Z,153530.81
2022-11-16T14:19:54.793Z,153506.19
2022-11-16T14:22:52.565Z,153462.19
2022-11-16T14:25:41.442Z,153447.94
2022-11-16T14:28:30.695Z,153479.03
2022-11-16T14:31:08.687Z,153458.31
2022-11-16T14:33:38.435Z,153427.22
2022-11-16T14:36:10.800Z,153411.72
2022-11-16T14:38:41.278Z,153323.69
2022-11-16T14:41:19.044Z,153371.59
2022-11-16T14:43:50.439Z,153369.00
2022-11-16T14:46:23.411Z,153340.50
2022-11-16T14:48:51.469Z,153334.03
2022-11-16T14:51:23.731Z,153337.91
2022-11-16T14:53:55.855Z,153352.16
2022-11-16T14:56:24.918Z,153352.16
2022-11-16T14:58:54.432Z,153335.31
2022-11-16T15:01:25.807Z,153334.03
2022-11-16T15:03:58.417Z,153318.50
2022-11-16T15:06:27.742Z,153310.75
2022-11-16T15:08:59.120Z,153264.16
2022-11-16T15:11:45.513Z,153286.16
2022-11-16T15:14:18.131Z,153302.97
2022-11-16T15:16:50.889Z,153266.78
2022-11-16T15:19:18.719Z,153234.38
2022-11-16T15:21:52.969Z,153209.81
2022-11-16T15:24:31.419Z,153185.22
2022-11-16T15:27:11.573Z,153160.63
2022-11-16T15:29:39.986Z,153108.88
2022-11-16T15:32:13.910Z,153110.19
2022-11-16T15:34:41.663Z,153102.41
2022-11-16T15:37:12.107Z,153066.19
2022-11-16T15:39:40.843Z,153049.41
2022-11-16T15:42:15.546Z,153057.13
2022-11-16T15:44:44.027Z,153044.22
2022-11-16T15:47:14.991Z,153018.38
2022-11-16T15:49:44.048Z,152982.13
2022-11-16T15:52:12.015Z,152948.56
2022-11-16T15:54:53.570Z,152923.97
2022-11-16T15:57:25.305Z,152908.47
2022-11-16T15:59:55.575Z,152912.34
2022-11-16T16:02:27.601Z,152911.06
2022-11-16T16:04:55.299Z,152863.22
2022-11-16T16:07:40.331Z,152894.25
2022-11-16T16:10:23.850Z,152881.34
2022-11-16T16:12:54.446Z,152876.16
2022-11-16T16:15:24.728Z,152849.00
2022-11-16T16:17:53.978Z,152842.53
2022-11-16T16:20:23.853Z,152839.94
2022-11-16T16:22:55.225Z,152827.06
2022-11-16T16:25:28.386Z,152829.63
2022-11-16T16:27:58.070Z,152827.06
2022-11-16T16:30:26.440Z,152830.91
2022-11-16T16:32:54.433Z,152836.09
2022-11-16T16:35:24.228Z,152821.88
2022-11-16T16:37:53.252Z,152823.19
2022-11-16T16:40:20.866Z,152811.56
2022-11-16T16:42:48.999Z,152783.06
2022-11-16T16:45:21.204Z,152803.75
2022-11-16T16:47:49.127Z,152798.56
2022-11-16T16:50:17.586Z,152793.38
2022-11-16T16:52:45.602Z,152797.28
2022-11-16T16:55:13.386Z,152803.75
2022-11-16T16:57:41.019Z,152810.25
2022-11-16T17:00:11.669Z,152811.56
2022-11-16T17:02:40.621Z,152797.28
2022-11-16T17:05:09.898Z,152808.97
2022-11-16T17:07:37.762Z,152803.75
2022-11-16T17:10:06.420Z,152780.47
2022-11-16T17:12:34.184Z,152761.09
2022-11-16T17:15:02.125Z,152708.13
2022-11-16T17:17:29.814Z,152730.06
2022-11-16T17:19:58.903Z,152723.63
2022-11-16T17:22:26.591Z,152697.78
2022-11-16T17:24:54.444Z,152709.41
2022-11-16T17:27:22.139Z,152710.72
2022-11-16T17:29:49.785Z,152697.78
2022-11-16T17:32:17.533Z,152704.22
2022-11-16T17:34:45.283Z,152687.47
2022-11-16T17:37:14.641Z,152669.34
2022-11-16T17:39:42.974Z,152661.63
2022-11-16T17:42:10.621Z,152647.41
2022-11-16T17:44:38.381Z,152651.28
2022-11-16T17:47:07.345Z,152634.47
2022-11-16T17:49:35.040Z,152620.25
2022-11-16T17:52:02.851Z,152609.97
2022-11-16T17:54:31.844Z,152594.47
2022-11-16T17:56:59.560Z,152594.47
2022-11-16T17:59:29.747Z,152598.34
2022-11-16T18:01:58.337Z,152597.03
2022-11-16T18:04:26.035Z,152560.88
2022-11-16T18:06:53.833Z,152560.88
2022-11-16T18:09:21.525Z,152577.69
2022-11-16T18:11:50.543Z,152599.59
2022-11-16T18:14:18.147Z,152580.28
2022-11-16T18:16:47.851Z,152571.25
2022-11-16T18:19:17.257Z,152580.28
2022-11-16T18:21:45.861Z,152555.72
2022-11-16T18:24:14.075Z,152536.31
2022-11-16T18:26:42.237Z,152544.09
2022-11-16T18:29:15.765Z,152527.28
2022-11-16T18:31:43.464Z,152511.81
2022-11-16T18:34:13.701Z,152514.41
2022-11-16T18:36:41.493Z,152504.06
2022-11-16T18:39:09.355Z,152442.09
2022-11-16T18:41:38.174Z,152491.16
2022-11-16T18:44:06.440Z,152478.22
2022-11-16T18:46:35.458Z,152470.50
2022-11-16T18:49:03.157Z,152452.41
2022-11-16T18:51:30.922Z,152455.00
2022-11-16T18:53:58.729Z,152434.34
2022-11-16T18:56:26.874Z,152408.53
2022-11-16T18:58:54.531Z,152430.50
2022-11-16T19:01:24.073Z,152416.28
2022-11-16T19:03:54.148Z,152405.94
2022-11-16T19:06:22.572Z,152386.59
2022-11-16T19:08:56.395Z,152369.81
2022-11-16T19:11:25.004Z,152377.59
2022-11-16T19:13:55.319Z,152367.25
2022-11-16T19:16:24.097Z,152354.34
2022-11-16T19:18:53.571Z,152345.28
2022-11-16T19:21:22.424Z,152336.25
2022-11-16T19:23:52.178Z,152323.31
2022-11-16T19:26:21.656Z,152318.16
2022-11-16T19:28:50.677Z,152316.88
2022-11-16T19:31:20.247Z,152342.75
2022-11-16T19:33:48.245Z,152315.56
2022-11-16T19:36:18.890Z,152336.25
2022-11-16T19:38:48.303Z,152315.56
2022-11-16T19:41:17.315Z,152303.94
2022-11-16T19:43:44.990Z,152301.38
2022-11-16T19:46:16.477Z,152297.50
2022-11-16T19:48:44.722Z,152309.13
2022-11-16T19:51:13.834Z,152311.72
2022-11-16T19:53:43.231Z,152247.22
2022-11-16T19:56:12.307Z,152297.50
2022-11-16T19:58:40.101Z,152294.91
2022-11-16T20:01:11.116Z,152283.31
2022-11-16T20:03:40.333Z,152265.25
2022-11-16T20:06:10.381Z,152284.56
2022-11-16T20:08:38.460Z,152325.91
2022-11-16T20:11:15.698Z,152312.97
2022-11-16T20:13:43.786Z,152320.72
2022-11-16T20:16:13.556Z,152333.66
2022-11-16T20:18:43.899Z,152325.91
2022-11-16T20:21:16.213Z,152262.69
2022-11-16T20:23:45.377Z,152344.00
2022-11-16T20:26:15.442Z,152340.16
2022-11-16T20:28:44.469Z,152346.59
2022-11-16T20:31:14.058Z,152345.28
2022-11-16T20:33:42.350Z,152364.66
2022-11-16T20:36:11.351Z,152367.25
2022-11-16T20:38:40.028Z,152364.66
2022-11-16T20:41:12.458Z,152391.75
2022-11-16T20:43:43.202Z,152390.47
2022-11-16T20:46:12.855Z,152407.25
2022-11-16T20:48:42.320Z,152429.16
2022-11-16T20:51:11.861Z,152422.72
2022-11-16T20:53:39.866Z,152429.16
2022-11-16T20:56:08.582Z,152430.50
2022-11-16T20:58:36.630Z,152449.88
2022-11-16T21:01:07.635Z,152460.16
2022-11-16T21:03:36.042Z,152425.31
2022-11-16T21:06:04.550Z,152455.00
2022-11-16T21:08:32.258Z,152436.94
2022-11-16T21:10:59.921Z,152471.78
2022-11-16T21:13:44.871Z,152469.19
2022-11-16T21:16:15.406Z,152489.84
2022-11-16T21:18:43.076Z,152482.13
2022-11-16T21:21:13.160Z,152513.09
2022-11-16T21:23:42.996Z,152517.00
2022-11-16T21:26:13.401Z,152538.91
2022-11-16T21:28:44.571Z,152507.97
2022-11-16T21:31:15.561Z,152527.28
2022-11-16T21:33:44.402Z,152541.50
2022-11-16T21:36:14.200Z,152568.66
2022-11-16T21:38:42.395Z,152553.13
2022-11-16T21:41:11.469Z,152554.44
2022-11-16T21:43:40.574Z,152557.03
2022-11-16T21:46:10.758Z,152542.81
2022-11-16T21:48:40.145Z,152566.06
2022-11-16T21:51:09.574Z,152567.34
2022-11-16T21:53:37.989Z,152567.34
2022-11-16T21:56:07.571Z,152582.84
2022-11-16T21:58:35.389Z,152571.25
2022-11-16T22:01:03.416Z,152580.28
2022-11-16T22:03:32.776Z,152594.47
2022-11-16T22:06:21.071Z,152564.75
2022-11-16T22:08:49.603Z,152559.63
2022-11-16T22:11:21.732Z,152550.53
2022-11-16T22:13:50.033Z,152585.41
2022-11-16T22:16:19.231Z,152575.09
2022-11-16T22:18:46.924Z,152598.34
2022-11-16T22:21:16.151Z,152612.53
2022-11-16T22:23:43.808Z,152587.97
2022-11-16T22:26:13.475Z,152603.50
2022-11-16T22:28:41.130Z,152599.59
2022-11-16T22:31:11.478Z,152589.31
2022-11-16T22:33:39.598Z,152602.19
2022-11-16T22:36:09.288Z,152615.13
2022-11-16T22:38:38.626Z,152585.41
2022-11-16T22:41:06.526Z,152587.97
2022-11-16T22:43:35.855Z,152597.03
2022-11-16T22:46:06.394Z,152599.59
2022-11-16T22:48:35.477Z,152609.97
2022-11-16T22:51:04.668Z,152604.78
2022-11-16T22:53:32.846Z,152612.53
2022-11-16T22:56:10.304Z,152660.31
2022-11-16T22:58:39.154Z,152679.72
2022-11-16T23:01:08.351Z,152660.31
2022-11-16T23:03:37.061Z,152682.28
2022-11-16T23:06:06.214Z,152691.31
2022-11-16T23:08:34.885Z,152691.31
2022-11-16T23:11:22.376Z,152705.53
2022-11-16T23:14:10.568Z,152715.91
2022-11-16T23:16:39.345Z,152709.41
2022-11-16T23:19:27.778Z,152731.38
2022-11-16T23:22:13.020Z,152695.19
2022-11-16T23:24:54.920Z,152705.53
2022-11-16T23:27:31.903Z,152727.53
2022-11-16T23:30:04.498Z,152727.53
2022-11-16T23:32:35.729Z,152745.59
2022-11-16T23:35:03.438Z,152749.47
2022-11-16T23:37:31.053Z,152759.81
2022-11-16T23:39:58.707Z,152764.94
2022-11-16T23:42:43.934Z,152744.28
2022-11-16T23:45:12.958Z,152758.50
2022-11-16T23:47:40.685Z,152762.41
2022-11-16T23:50:09.018Z,152757.22
2022-11-16T23:52:36.865Z,152739.16
2022-11-16T23:55:04.837Z,152752.06
2022-11-16T23:57:32.514Z,152770.13
